createdAt,value
2018-10-09T00:02:29.801Z,11.44
2018-10-09T00:07:32.960Z,11.44
2018-10-09T00:12:36.106Z,11.46
2018-10-09T00:17:39.198Z,11.49
2018-10-09T00:22:42.302Z,11.51
2018-10-09T00:27:45.354Z,11.51
2018-10-09T00:32:48.463Z,11.41
2018-10-09T00:37:51.538Z,11.30
2018-10-09T00:42:54.687Z,11.12
2018-10-09T00:47:57.732Z,11.05
2018-10-09T00:53:00.822Z,10.99
2018-10-09T00:58:03.936Z,11.00
2018-10-09T01:11:04.991Z,10.64
2018-10-09T01:16:08.553Z,10.78
2018-10-09T01:21:11.606Z,10.81
2018-10-09T01:26:14.649Z,10.80
2018-10-09T01:31:17.706Z,10.84
2018-10-09T01:36:20.735Z,10.88
2018-10-09T01:41:23.763Z,10.91
2018-10-09T01:46:26.787Z,10.91
2018-10-09T01:51:29.890Z,10.93
2018-10-09T01:56:32.922Z,10.97
2018-10-09T02:01:35.943Z,11.00
2018-10-09T02:06:38.987Z,11.09
2018-10-09T02:11:42.198Z,11.11
2018-10-09T02:16:45.242Z,11.11
2018-10-09T02:21:48.295Z,11.11
2018-10-09T02:26:51.419Z,11.09
2018-10-09T02:31:54.467Z,11.07
2018-10-09T02:36:57.518Z,11.04
2018-10-09T02:42:00.584Z,11.02
2018-10-09T02:47:03.639Z,11.01
2018-10-09T02:52:06.795Z,10.96
2018-10-09T02:57:09.823Z,10.93
2018-10-09T03:02:12.935Z,10.91
2018-10-09T03:07:15.992Z,10.83
2018-10-09T03:12:19.037Z,10.84
2018-10-09T03:17:22.351Z,10.86
2018-10-09T03:22:25.400Z,10.86
2018-10-09T03:27:28.435Z,10.84
2018-10-09T03:32:31.488Z,10.85
2018-10-09T03:37:34.539Z,10.88
2018-10-09T03:42:37.575Z,10.87
2018-10-09T03:47:40.737Z,10.86
2018-10-09T03:52:43.803Z,10.86
2018-10-09T03:57:46.850Z,10.82
2018-10-09T04:02:49.996Z,10.77
2018-10-09T04:07:53.428Z,10.72
2018-10-09T04:12:56.534Z,10.73
2018-10-09T04:18:04.380Z,10.67
2018-10-09T04:23:08.541Z,10.56
2018-10-09T04:28:11.742Z,10.56
2018-10-09T04:33:14.774Z,10.60
2018-10-09T04:38:19.322Z,10.61
2018-10-09T04:43:22.426Z,10.60
2018-10-09T04:48:26.987Z,10.54
2018-10-09T04:53:30.080Z,10.51
2018-10-09T04:58:33.148Z,10.47
2018-10-09T05:03:36.306Z,10.44
2018-10-09T05:08:39.352Z,10.40
2018-10-09T05:13:42.411Z,10.40
2018-10-09T05:18:46.511Z,10.40
2018-10-09T05:23:49.561Z,10.39
2018-10-09T05:28:52.742Z,10.39
2018-10-09T05:33:55.794Z,10.34
2018-10-09T05:38:58.865Z,10.22
2018-10-09T05:44:01.933Z,10.18
2018-10-09T05:49:05.087Z,10.24
2018-10-09T05:54:08.738Z,10.33
2018-10-09T05:59:11.831Z,10.39
2018-10-09T06:04:14.884Z,10.48
2018-10-09T06:09:17.929Z,10.63
2018-10-09T06:14:20.981Z,10.76
2018-10-09T06:19:24.030Z,10.75
2018-10-09T06:24:27.199Z,10.90
2018-10-09T06:29:30.235Z,11.05
2018-10-09T06:34:33.277Z,11.16
2018-10-09T06:39:36.313Z,11.34
2018-10-09T06:44:39.335Z,11.44
2018-10-09T06:49:42.385Z,11.52
2018-10-09T06:54:45.543Z,11.64
2018-10-09T06:59:48.503Z,11.76
2018-10-09T07:04:51.635Z,11.83
2018-10-09T07:09:54.708Z,11.93
2018-10-09T07:14:57.780Z,11.98
2018-10-09T07:20:00.835Z,12.07
2018-10-09T07:25:03.959Z,12.12
2018-10-09T07:30:08.183Z,12.21
2018-10-09T07:35:11.437Z,12.36
2018-10-09T07:40:14.491Z,12.54
2018-10-09T07:45:17.567Z,12.79
2018-10-09T07:50:20.631Z,13.06
2018-10-09T07:55:23.715Z,13.31
2018-10-09T08:00:26.826Z,13.60
2018-10-09T08:05:29.912Z,13.75
2018-10-09T08:10:33.064Z,14.06
2018-10-09T08:15:36.092Z,14.32
2018-10-09T08:20:39.133Z,14.47
2018-10-09T08:25:42.565Z,14.67
2018-10-09T08:30:45.691Z,14.81
2018-10-09T08:35:48.763Z,14.97
2018-10-09T08:40:51.821Z,15.09
2018-10-09T08:45:54.931Z,15.37
2018-10-09T08:50:58.045Z,15.73
2018-10-09T08:56:01.216Z,15.99
2018-10-09T09:01:04.284Z,16.21
2018-10-09T09:06:07.419Z,16.37
2018-10-09T09:11:10.540Z,16.52
2018-10-09T09:16:13.652Z,16.57
2018-10-09T09:21:16.797Z,16.69
2018-10-09T09:26:19.836Z,16.78
2018-10-09T09:31:22.896Z,17.04
2018-10-09T09:36:26.084Z,17.22
2018-10-09T09:41:29.166Z,17.43
2018-10-09T09:46:32.235Z,17.67
2018-10-09T09:51:35.292Z,17.88
2018-10-09T09:56:38.329Z,18.13
2018-10-09T10:01:42.527Z,18.38
2018-10-09T10:06:45.647Z,18.63
2018-10-09T10:11:48.716Z,18.83
2018-10-09T10:16:51.794Z,19.14
2018-10-09T10:21:54.884Z,19.35
2018-10-09T10:26:57.955Z,19.54
2018-10-09T10:32:01.012Z,19.66
2018-10-09T10:37:04.096Z,19.76
2018-10-09T10:42:07.210Z,19.78
2018-10-09T10:47:10.323Z,19.72
2018-10-09T10:52:13.416Z,19.73
2018-10-09T10:57:16.480Z,19.72
2018-10-09T11:02:19.547Z,19.76
2018-10-09T11:07:22.619Z,19.89
2018-10-09T11:12:25.775Z,20.05
2018-10-09T11:17:28.849Z,20.20
2018-10-09T11:22:31.907Z,20.39
2018-10-09T11:27:34.976Z,20.56
2018-10-09T11:32:38.122Z,20.60
2018-10-09T11:37:41.180Z,20.66
2018-10-09T11:42:44.307Z,20.72
2018-10-09T11:47:47.336Z,20.66
2018-10-09T11:52:50.393Z,20.68
2018-10-09T11:57:54.180Z,20.64
2018-10-09T12:02:57.306Z,20.69
2018-10-09T12:08:00.396Z,20.87
2018-10-09T12:13:03.583Z,20.87
2018-10-09T12:18:06.731Z,21.11
2018-10-09T12:23:09.835Z,21.27
2018-10-09T12:28:12.887Z,21.42
2018-10-09T12:33:15.964Z,21.57
2018-10-09T12:38:19.055Z,21.63
2018-10-09T12:43:22.121Z,21.68
2018-10-09T12:48:25.181Z,21.70
2018-10-09T12:53:28.322Z,21.80
2018-10-09T12:58:31.441Z,21.72
2018-10-09T13:03:34.518Z,21.76
2018-10-09T13:08:37.575Z,21.90
2018-10-09T13:13:40.744Z,21.91
2018-10-09T13:18:43.840Z,22.09
2018-10-09T13:23:46.898Z,22.03
2018-10-09T13:28:50.033Z,22.10
2018-10-09T13:33:53.146Z,22.06
2018-10-09T13:38:56.236Z,22.02
2018-10-09T13:43:59.385Z,21.97
2018-10-09T13:49:02.439Z,22.06
2018-10-09T13:54:05.924Z,22.14
2018-10-09T13:59:09.225Z,22.17
2018-10-09T14:04:12.370Z,22.00
2018-10-09T14:09:15.463Z,22.15
2018-10-09T14:14:18.559Z,22.19
2018-10-09T14:19:21.644Z,22.13
2018-10-09T14:24:24.748Z,22.17
2018-10-09T14:29:27.867Z,22.11
2018-10-09T14:34:30.939Z,22.11
2018-10-09T14:39:34.055Z,22.08
2018-10-09T14:44:37.228Z,22.15
2018-10-09T14:49:40.341Z,22.25
2018-10-09T14:54:43.420Z,22.31
2018-10-09T14:59:46.525Z,22.36
2018-10-09T15:04:49.595Z,22.29
2018-10-09T15:09:52.696Z,22.32
2018-10-09T15:14:55.796Z,22.43
2018-10-09T15:19:58.903Z,22.48
2018-10-09T15:25:01.982Z,22.48
2018-10-09T15:30:05.153Z,22.47
2018-10-09T15:35:08.295Z,22.49
2018-10-09T15:40:11.361Z,22.52
2018-10-09T15:45:14.444Z,22.55
2018-10-09T15:50:17.553Z,22.53
2018-10-09T15:55:20.626Z,22.52
2018-10-09T16:00:23.740Z,22.40
2018-10-09T16:05:26.841Z,22.27
2018-10-09T16:10:29.972Z,22.00
2018-10-09T16:15:33.055Z,21.72
2018-10-09T16:20:36.269Z,21.58
2018-10-09T16:25:39.510Z,21.38
2018-10-09T16:30:42.654Z,21.11
2018-10-09T16:35:45.926Z,20.82
2018-10-09T16:40:49.078Z,20.50
2018-10-09T16:45:52.291Z,20.14
2018-10-09T16:50:55.491Z,19.89
2018-10-09T16:55:58.714Z,19.56
2018-10-09T17:01:02.225Z,19.38
2018-10-09T17:06:05.328Z,19.10
2018-10-09T17:11:08.965Z,18.76
2018-10-09T17:16:12.322Z,18.72
2018-10-09T17:21:15.403Z,18.53
2018-10-09T17:26:18.543Z,18.38
2018-10-09T17:31:21.733Z,18.23
2018-10-09T17:36:24.880Z,18.16
2018-10-09T17:41:28.000Z,18.01
2018-10-09T17:46:31.142Z,17.87
2018-10-09T17:51:34.167Z,17.80
2018-10-09T17:56:37.267Z,17.68
2018-10-09T18:01:40.421Z,17.54
2018-10-09T18:06:43.572Z,17.46
2018-10-09T18:11:46.823Z,17.37
2018-10-09T18:16:51.141Z,17.24
2018-10-09T18:21:54.353Z,17.14
2018-10-09T18:26:57.570Z,17.04
2018-10-09T18:32:00.777Z,16.99
2018-10-09T18:37:06.228Z,16.91
2018-10-09T18:42:12.863Z,16.87
2018-10-09T18:47:21.699Z,16.75
2018-10-09T18:52:29.019Z,16.68
2018-10-09T18:57:32.172Z,16.62
2018-10-09T19:02:35.305Z,16.53
2018-10-09T19:07:40.830Z,16.33
2018-10-09T19:12:44.124Z,16.11
2018-10-09T19:17:47.339Z,16.11
2018-10-09T19:22:50.467Z,16.04
2018-10-09T19:27:53.548Z,15.86
2018-10-09T19:32:56.629Z,15.81
2018-10-09T19:37:59.695Z,15.78
2018-10-09T19:43:02.920Z,15.85
2018-10-09T19:48:06.037Z,15.81
2018-10-09T19:53:09.124Z,15.74
2018-10-09T19:58:12.179Z,15.68
2018-10-09T20:03:15.280Z,15.61
2018-10-09T20:08:18.352Z,15.49
2018-10-09T20:13:21.436Z,15.46
2018-10-09T20:18:24.534Z,15.41
2018-10-09T20:23:27.873Z,15.22
2018-10-09T20:28:30.988Z,15.19
2018-10-09T20:33:34.044Z,15.14
2018-10-09T20:38:37.109Z,14.94
2018-10-09T20:43:41.908Z,15.03
2018-10-09T20:48:45.137Z,14.99
2018-10-09T20:53:48.219Z,14.91
2018-10-09T20:58:51.323Z,14.89
2018-10-09T21:03:54.395Z,14.76
2018-10-09T21:08:57.459Z,14.83
2018-10-09T21:14:00.579Z,14.68
2018-10-09T21:19:03.675Z,14.51
2018-10-09T21:24:06.770Z,14.51
2018-10-09T21:29:09.887Z,14.51
2018-10-09T21:34:12.968Z,14.45
2018-10-09T21:39:16.087Z,14.35
2018-10-09T21:44:19.180Z,14.31
2018-10-09T21:49:22.252Z,14.27
2018-10-09T21:54:25.310Z,14.20
2018-10-09T21:59:28.407Z,14.12
2018-10-09T22:04:31.488Z,14.09
2018-10-09T22:09:34.556Z,14.01
2018-10-09T22:14:37.632Z,13.89
2018-10-09T22:19:40.705Z,13.83
2018-10-09T22:24:43.784Z,13.78
2018-10-09T22:29:46.959Z,13.67
2018-10-09T22:34:50.260Z,13.65
2018-10-09T22:39:53.376Z,13.70
2018-10-09T22:44:56.452Z,13.71
2018-10-09T22:49:59.620Z,13.69
2018-10-09T22:55:02.706Z,13.61
2018-10-09T23:00:06.013Z,13.59
2018-10-09T23:05:09.167Z,13.57
2018-10-09T23:10:12.252Z,13.54
2018-10-09T23:15:15.427Z,13.48
2018-10-09T23:20:18.506Z,13.40
2018-10-09T23:25:21.596Z,13.38
2018-10-09T23:30:24.660Z,13.35
2018-10-09T23:35:27.751Z,13.31
2018-10-09T23:40:30.832Z,13.24
2018-10-09T23:45:34.085Z,13.21
2018-10-09T23:50:40.217Z,13.17
2018-10-09T23:55:43.304Z,13.10
